Wednesday, April 01, 2015
09:25 UTC
  |  Log In   |  Register Free
Airport Search:

Dawson Municipal Airport
(16J)

Dawson Municipal Airport Diagram
No Airport Diagram Available

FAA data valid effective March 05, 2015 - April 30, 2015 (unless otherwise noted).

 
 
 
 
 
 
 
 
 
 
 
 
 
 

Current Aviation Weather for Dawson Municipal Airport (16J)

METAR data is unavailable for 16J. The nearest METAR location is at KABY (17 nm SE from 16J).

The most recent METAR observation for KABY was updated at: 0909
METAR Summary (Translated METAR)
KABY
010853Z AUTO 24005KT 10SM FEW013 18/17 A3002 RMK AO2 SLP164 T01780167 55002
(17 nm SE from 16J)
KACJ
010855Z AUTO 00000KT 10SM OVC100 15/14 A3000 RMK AO2
(25 nm NE from 16J)
TAF Summary (Translated TAF)
KABY
010540Z 0106/0206 24007KT P6SM SCT250 FM011000 23004KT 5SM BR SCT250 FM011400 28005KT P6SM SCT030 FM012000 27006KT P6SM VCTS BKN040CB
  Airport Weather Conditions for 16J

Current weather conditions are
not available for 16J


The nearest NOAA weather station
is at ABY, (17 nm SE from 16J)
  
 Current Weather at ABY
64° F
A Few Clouds
Southwest winds at 5.8 mph
ABY NOAA Radar

Pressure: 30.02 in
Humidity: 93%
Wind: Southwest at 5.8 MPH (5 KT)
Dew Point: 62.1°F
Visibility: 10.00 mi


Airport Weather Forecast for 16J

Translated METAR and TAF for KABY
Translated METAR for KABY (0924 UTC 01 April 2015)
found at http://aviationweather.gov/adds/metars/
 
METAR text: KABY 010853Z AUTO 24005KT 10SM FEW013 18/17 A3002 RMK AO2 SLP164 T01780167 55002
Conditions at: KABY (ALBANY , GA, US) observed 0853 UTC 01 April 2015
Temperature: 17.8°C (64°F)
Dewpoint: 16.7°C (62°F) [RH = 93%]
Pressure (altimeter): 30.02 inches Hg (1016.7 mb)
[Sea-level pressure: 1016.4 mb]
Winds: from the WSW (240 degrees) at 6 MPH (5 knots; 2.6 m/s)
Visibility: 10 or more miles (16+ km)
Ceiling: at least 12,000 feet AGL
Clouds: few clouds at 1300 feet AGL
Weather: automated observation with no human augmentation;
there may or may not be significant weather present at this time
Translated TAF for KABY
Forecast for: KABY (ALBANY , GA, US)
TAF Text: KABY 010540Z 0106/0206 24007KT P6SM SCT250
Forecast period: 0600 to 1000 UTC 01 April 2015
Forecast type: FROM: standard forecast or significant change
Winds: from the WSW (240 degrees) at 8 MPH (7 knots; 3.6 m/s)
Visibility: 6 or more miles (10+ km)
Clouds: scattered clouds at 25000 feet AGL
Weather: no significant weather forecast for this period
TAF Text: FM011000 23004KT 5SM BR SCT250
Forecast period: 1000 to 1400 UTC 01 April 2015
Forecast type: FROM: standard forecast or significant change
Winds: from the SW (230 degrees) at 5 MPH (4 knots; 2.1 m/s)
Visibility: 5 miles (8 km)
Clouds: scattered clouds at 25000 feet AGL
Weather: BR  (mist)
TAF Text: FM011400 28005KT P6SM SCT030
Forecast period: 1400 to 2000 UTC 01 April 2015
Forecast type: FROM: standard forecast or significant change
Winds: from the W (280 degrees) at 6 MPH (5 knots; 2.6 m/s)
Visibility: 6 or more miles (10+ km)
Clouds: scattered clouds at 3000 feet AGL
Weather: no significant weather forecast for this period
TAF Text: FM012000 27006KT P6SM VCTS BKN040CB
Forecast period: 2000 UTC 01 April 2015 to 0600 UTC 02 April 2015
Forecast type: FROM: standard forecast or significant change
Winds: from the W (270 degrees) at 7 MPH (6 knots; 3.1 m/s)
Visibility: 6 or more miles (10+ km)
Ceiling: 4000 feet AGL
Clouds: broken clouds at 4000 feet AGL
Weather: VCTS  (thunderstorm in vicinity)

Find All Airport Services Find A Hotel Find A Rental Car Find A Golf Course Find A Restaurant $100 Hamburger



FBO's on the Field
FBO Company Facility Photos Services Transportation Aviation Fuel Prices: Prices include tax
Catering Weather Repair Courtesy Rental Type 100LL JetA JetA+ MOGAS 8087
 
Dawson/Terrell Co. Airport

This FBO has not yet been rated
FS:Independent
Last Updated: Mar-05
Login to update fuel prices
SS:
Contact Dawson/Terrell Co. AirportMore FBO Information
 
Add another FBO Facility Photos Catering Weather Repair Courtesy Rental Type 100LL JetA JetA+ MOGAS 8087
Services Transportation Aviation Fuel Prices: Prices include tax


model-print
model-print
model-print
model-print